sensor_id;sensor_type;location;lat;lon;timestamp;P1;durP1;ratioP1;P2;durP2;ratioP2
10303;SDS011;5197;48.152;8.590;2024-01-06T00:02:22;2.93;;;1.70;;
10303;SDS011;5197;48.152;8.590;2024-01-06T00:04:49;3.17;;;1.57;;
10303;SDS011;5197;48.152;8.590;2024-01-06T00:07:16;4.10;;;1.40;;
10303;SDS011;5197;48.152;8.590;2024-01-06T00:09:43;4.63;;;1.50;;
10303;SDS011;5197;48.152;8.590;2024-01-06T00:12:10;2.97;;;1.63;;
10303;SDS011;5197;48.152;8.590;2024-01-06T00:14:37;6.10;;;1.63;;
10303;SDS011;5197;48.152;8.590;2024-01-06T00:17:04;1.93;;;1.27;;
10303;SDS011;5197;48.152;8.590;2024-01-06T00:19:31;6.87;;;1.90;;
10303;SDS011;5197;48.152;8.590;2024-01-06T00:21:58;2.90;;;1.60;;
10303;SDS011;5197;48.152;8.590;2024-01-06T00:24:27;3.67;;;1.60;;
10303;SDS011;5197;48.152;8.590;2024-01-06T00:26:54;2.50;;;1.33;;
10303;SDS011;5197;48.152;8.590;2024-01-06T00:29:21;3.83;;;1.63;;
10303;SDS011;5197;48.152;8.590;2024-01-06T00:31:48;4.70;;;1.73;;
10303;SDS011;5197;48.152;8.590;2024-01-06T00:34:16;4.60;;;1.53;;
10303;SDS011;5197;48.152;8.590;2024-01-06T00:36:43;3.73;;;1.53;;
10303;SDS011;5197;48.152;8.590;2024-01-06T00:39:10;3.70;;;1.50;;
10303;SDS011;5197;48.152;8.590;2024-01-06T00:41:38;2.73;;;1.40;;
10303;SDS011;5197;48.152;8.590;2024-01-06T00:44:05;3.30;;;1.50;;
10303;SDS011;5197;48.152;8.590;2024-01-06T00:46:32;2.77;;;1.57;;
10303;SDS011;5197;48.152;8.590;2024-01-06T00:48:59;1.90;;;1.50;;
10303;SDS011;5197;48.152;8.590;2024-01-06T00:51:27;1.83;;;1.63;;
10303;SDS011;5197;48.152;8.590;2024-01-06T00:53:54;2.10;;;1.50;;
10303;SDS011;5197;48.152;8.590;2024-01-06T00:56:21;4.17;;;1.70;;
10303;SDS011;5197;48.152;8.590;2024-01-06T00:58:48;2.50;;;1.43;;
10303;SDS011;5197;48.152;8.590;2024-01-06T01:01:15;5.73;;;1.87;;
10303;SDS011;5197;48.152;8.590;2024-01-06T01:03:42;1.60;;;1.43;;
10303;SDS011;5197;48.152;8.590;2024-01-06T01:06:09;2.07;;;1.63;;
10303;SDS011;5197;48.152;8.590;2024-01-06T01:08:36;1.60;;;1.50;;
10303;SDS011;5197;48.152;8.590;2024-01-06T01:11:04;5.20;;;1.70;;
10303;SDS011;5197;48.152;8.590;2024-01-06T01:13:31;4.23;;;1.87;;
10303;SDS011;5197;48.152;8.590;2024-01-06T01:15:58;3.77;;;1.40;;
10303;SDS011;5197;48.152;8.590;2024-01-06T01:18:25;1.80;;;1.70;;
10303;SDS011;5197;48.152;8.590;2024-01-06T01:20:52;6.50;;;1.80;;
10303;SDS011;5197;48.152;8.590;2024-01-06T01:23:19;1.77;;;1.60;;
10303;SDS011;5197;48.152;8.590;2024-01-06T01:25:46;4.67;;;2.03;;
10303;SDS011;5197;48.152;8.590;2024-01-06T01:28:14;1.90;;;1.50;;
10303;SDS011;5197;48.152;8.590;2024-01-06T01:30:41;2.57;;;1.60;;
10303;SDS011;5197;48.152;8.590;2024-01-06T01:33:08;1.80;;;1.70;;
10303;SDS011;5197;48.152;8.590;2024-01-06T01:35:36;6.13;;;1.93;;
10303;SDS011;5197;48.152;8.590;2024-01-06T01:38:03;1.63;;;1.47;;
10303;SDS011;5197;48.152;8.590;2024-01-06T01:40:30;3.10;;;1.67;;
10303;SDS011;5197;48.152;8.590;2024-01-06T01:42:58;2.90;;;1.63;;
10303;SDS011;5197;48.152;8.590;2024-01-06T01:45:24;4.30;;;1.70;;
10303;SDS011;5197;48.152;8.590;2024-01-06T01:47:51;5.23;;;2.10;;
10303;SDS011;5197;48.152;8.590;2024-01-06T01:50:19;2.30;;;1.90;;
10303;SDS011;5197;48.152;8.590;2024-01-06T01:52:48;2.33;;;1.80;;
10303;SDS011;5197;48.152;8.590;2024-01-06T01:55:15;3.90;;;2.00;;
10303;SDS011;5197;48.152;8.590;2024-01-06T01:57:43;6.00;;;1.73;;
10303;SDS011;5197;48.152;8.590;2024-01-06T02:00:11;3.63;;;2.00;;
10303;SDS011;5197;48.152;8.590;2024-01-06T02:02:39;3.63;;;1.80;;
10303;SDS011;5197;48.152;8.590;2024-01-06T02:05:06;2.77;;;1.77;;
10303;SDS011;5197;48.152;8.590;2024-01-06T02:07:33;4.60;;;1.97;;
10303;SDS011;5197;48.152;8.590;2024-01-06T02:10:00;2.93;;;1.93;;
10303;SDS011;5197;48.152;8.590;2024-01-06T02:12:27;3.77;;;2.07;;
10303;SDS011;5197;48.152;8.590;2024-01-06T02:14:54;3.23;;;1.97;;
10303;SDS011;5197;48.152;8.590;2024-01-06T02:17:21;3.27;;;2.00;;
10303;SDS011;5197;48.152;8.590;2024-01-06T02:19:48;4.30;;;2.27;;
10303;SDS011;5197;48.152;8.590;2024-01-06T02:22:16;1.60;;;1.50;;
10303;SDS011;5197;48.152;8.590;2024-01-06T02:24:43;4.30;;;1.87;;
10303;SDS011;5197;48.152;8.590;2024-01-06T02:27:10;2.63;;;1.97;;
10303;SDS011;5197;48.152;8.590;2024-01-06T02:29:38;1.73;;;1.60;;
10303;SDS011;5197;48.152;8.590;2024-01-06T02:32:05;2.33;;;2.00;;
10303;SDS011;5197;48.152;8.590;2024-01-06T02:34:32;4.77;;;1.90;;
10303;SDS011;5197;48.152;8.590;2024-01-06T02:36:59;4.20;;;2.03;;
10303;SDS011;5197;48.152;8.590;2024-01-06T02:39:26;2.27;;;2.03;;
10303;SDS011;5197;48.152;8.590;2024-01-06T02:41:53;2.93;;;1.97;;
10303;SDS011;5197;48.152;8.590;2024-01-06T02:44:21;1.67;;;1.57;;
10303;SDS011;5197;48.152;8.590;2024-01-06T02:46:48;4.97;;;1.97;;
10303;SDS011;5197;48.152;8.590;2024-01-06T02:49:15;2.63;;;1.47;;
10303;SDS011;5197;48.152;8.590;2024-01-06T02:51:42;4.67;;;2.10;;
10303;SDS011;5197;48.152;8.590;2024-01-06T02:54:09;7.70;;;2.00;;
10303;SDS011;5197;48.152;8.590;2024-01-06T02:56:36;3.43;;;1.77;;
10303;SDS011;5197;48.152;8.590;2024-01-06T02:59:05;3.47;;;2.00;;
10303;SDS011;5197;48.152;8.590;2024-01-06T03:01:32;5.70;;;2.17;;
10303;SDS011;5197;48.152;8.590;2024-01-06T03:03:59;4.10;;;1.90;;
10303;SDS011;5197;48.152;8.590;2024-01-06T03:06:26;4.33;;;2.07;;
10303;SDS011;5197;48.152;8.590;2024-01-06T03:08:54;3.50;;;1.67;;
10303;SDS011;5197;48.152;8.590;2024-01-06T03:11:21;3.30;;;1.80;;
10303;SDS011;5197;48.152;8.590;2024-01-06T03:13:49;5.50;;;1.60;;
10303;SDS011;5197;48.152;8.590;2024-01-06T03:16:16;2.37;;;1.53;;
10303;SDS011;5197;48.152;8.590;2024-01-06T03:18:46;4.03;;;2.30;;
10303;SDS011;5197;48.152;8.590;2024-01-06T03:21:17;6.20;;;1.80;;
10303;SDS011;5197;48.152;8.590;2024-01-06T03:23:48;3.63;;;1.80;;
10303;SDS011;5197;48.152;8.590;2024-01-06T03:26:16;2.60;;;1.67;;
10303;SDS011;5197;48.152;8.590;2024-01-06T03:28:44;2.67;;;1.60;;
10303;SDS011;5197;48.152;8.590;2024-01-06T03:31:11;4.33;;;1.80;;
10303;SDS011;5197;48.152;8.590;2024-01-06T03:33:38;4.00;;;1.90;;
10303;SDS011;5197;48.152;8.590;2024-01-06T03:36:08;3.30;;;1.73;;
10303;SDS011;5197;48.152;8.590;2024-01-06T03:38:36;5.80;;;2.00;;
10303;SDS011;5197;48.152;8.590;2024-01-06T03:41:03;3.90;;;1.77;;
10303;SDS011;5197;48.152;8.590;2024-01-06T03:43:31;3.17;;;1.73;;
10303;SDS011;5197;48.152;8.590;2024-01-06T03:45:58;3.60;;;2.00;;
10303;SDS011;5197;48.152;8.590;2024-01-06T03:48:26;4.83;;;1.80;;
10303;SDS011;5197;48.152;8.590;2024-01-06T03:50:53;3.57;;;2.10;;
10303;SDS011;5197;48.152;8.590;2024-01-06T03:53:20;3.87;;;2.00;;
10303;SDS011;5197;48.152;8.590;2024-01-06T03:55:52;2.27;;;1.33;;
10303;SDS011;5197;48.152;8.590;2024-01-06T03:58:19;4.17;;;1.73;;
10303;SDS011;5197;48.152;8.590;2024-01-06T04:00:46;2.10;;;1.40;;
10303;SDS011;5197;48.152;8.590;2024-01-06T04:03:14;2.23;;;1.40;;
10303;SDS011;5197;48.152;8.590;2024-01-06T04:05:41;5.23;;;1.80;;
10303;SDS011;5197;48.152;8.590;2024-01-06T04:08:08;4.13;;;1.60;;
10303;SDS011;5197;48.152;8.590;2024-01-06T04:10:35;4.77;;;1.70;;
10303;SDS011;5197;48.152;8.590;2024-01-06T04:13:02;4.90;;;1.90;;
10303;SDS011;5197;48.152;8.590;2024-01-06T04:15:29;3.10;;;1.43;;
10303;SDS011;5197;48.152;8.590;2024-01-06T04:18:00;4.07;;;1.80;;
10303;SDS011;5197;48.152;8.590;2024-01-06T04:20:29;6.13;;;1.97;;
10303;SDS011;5197;48.152;8.590;2024-01-06T04:22:57;3.27;;;2.00;;
10303;SDS011;5197;48.152;8.590;2024-01-06T04:25:24;5.43;;;2.07;;
10303;SDS011;5197;48.152;8.590;2024-01-06T04:27:52;3.43;;;2.00;;
10303;SDS011;5197;48.152;8.590;2024-01-06T04:30:19;4.63;;;1.70;;
10303;SDS011;5197;48.152;8.590;2024-01-06T04:32:47;8.07;;;2.07;;
10303;SDS011;5197;48.152;8.590;2024-01-06T04:35:17;2.73;;;1.87;;
10303;SDS011;5197;48.152;8.590;2024-01-06T04:37:44;3.97;;;2.17;;
10303;SDS011;5197;48.152;8.590;2024-01-06T04:40:11;2.80;;;1.63;;
10303;SDS011;5197;48.152;8.590;2024-01-06T04:42:38;3.47;;;2.13;;
10303;SDS011;5197;48.152;8.590;2024-01-06T04:45:05;4.53;;;1.60;;
10303;SDS011;5197;48.152;8.590;2024-01-06T04:47:33;5.47;;;1.83;;
10303;SDS011;5197;48.152;8.590;2024-01-06T04:50:01;3.93;;;1.70;;
10303;SDS011;5197;48.152;8.590;2024-01-06T04:52:28;5.00;;;1.80;;
10303;SDS011;5197;48.152;8.590;2024-01-06T04:54:56;5.43;;;1.80;;
10303;SDS011;5197;48.152;8.590;2024-01-06T04:57:23;2.63;;;1.70;;
10303;SDS011;5197;48.152;8.590;2024-01-06T04:59:50;4.20;;;1.77;;
10303;SDS011;5197;48.152;8.590;2024-01-06T05:02:17;2.23;;;1.50;;
10303;SDS011;5197;48.152;8.590;2024-01-06T05:04:45;6.07;;;2.17;;
10303;SDS011;5197;48.152;8.590;2024-01-06T05:07:12;4.17;;;2.10;;
10303;SDS011;5197;48.152;8.590;2024-01-06T05:09:39;3.23;;;1.87;;
10303;SDS011;5197;48.152;8.590;2024-01-06T05:12:06;5.23;;;1.77;;
10303;SDS011;5197;48.152;8.590;2024-01-06T05:14:33;5.03;;;2.00;;
10303;SDS011;5197;48.152;8.590;2024-01-06T05:17:00;5.83;;;1.80;;
10303;SDS011;5197;48.152;8.590;2024-01-06T05:19:27;5.83;;;1.60;;
10303;SDS011;5197;48.152;8.590;2024-01-06T05:21:55;3.60;;;2.07;;
10303;SDS011;5197;48.152;8.590;2024-01-06T05:24:22;2.73;;;1.30;;
10303;SDS011;5197;48.152;8.590;2024-01-06T05:26:49;3.27;;;1.40;;
10303;SDS011;5197;48.152;8.590;2024-01-06T05:29:16;4.13;;;1.77;;
10303;SDS011;5197;48.152;8.590;2024-01-06T05:31:43;3.90;;;1.70;;
10303;SDS011;5197;48.152;8.590;2024-01-06T05:34:12;2.50;;;1.53;;
10303;SDS011;5197;48.152;8.590;2024-01-06T05:36:39;1.70;;;1.60;;
10303;SDS011;5197;48.152;8.590;2024-01-06T05:39:07;5.67;;;1.90;;
10303;SDS011;5197;48.152;8.590;2024-01-06T05:41:38;4.77;;;1.53;;
10303;SDS011;5197;48.152;8.590;2024-01-06T05:44:06;1.40;;;1.27;;
10303;SDS011;5197;48.152;8.590;2024-01-06T05:46:34;1.67;;;1.40;;
10303;SDS011;5197;48.152;8.590;2024-01-06T05:49:01;3.00;;;1.40;;
10303;SDS011;5197;48.152;8.590;2024-01-06T05:51:28;3.47;;;1.17;;
10303;SDS011;5197;48.152;8.590;2024-01-06T05:53:56;1.60;;;1.50;;
10303;SDS011;5197;48.152;8.590;2024-01-06T05:56:23;3.37;;;1.40;;
10303;SDS011;5197;48.152;8.590;2024-01-06T05:58:54;2.00;;;1.23;;
10303;SDS011;5197;48.152;8.590;2024-01-06T06:01:22;5.10;;;1.50;;
10303;SDS011;5197;48.152;8.590;2024-01-06T06:03:50;6.00;;;1.90;;
10303;SDS011;5197;48.152;8.590;2024-01-06T06:06:18;1.87;;;1.47;;
10303;SDS011;5197;48.152;8.590;2024-01-06T06:08:45;2.53;;;1.00;;
10303;SDS011;5197;48.152;8.590;2024-01-06T06:11:12;2.37;;;1.30;;
10303;SDS011;5197;48.152;8.590;2024-01-06T06:13:40;2.70;;;1.17;;
10303;SDS011;5197;48.152;8.590;2024-01-06T06:16:09;4.07;;;1.30;;
10303;SDS011;5197;48.152;8.590;2024-01-06T06:18:39;3.10;;;1.23;;
10303;SDS011;5197;48.152;8.590;2024-01-06T06:21:06;2.13;;;1.40;;
10303;SDS011;5197;48.152;8.590;2024-01-06T06:23:34;5.20;;;1.33;;
10303;SDS011;5197;48.152;8.590;2024-01-06T06:26:05;1.73;;;1.10;;
10303;SDS011;5197;48.152;8.590;2024-01-06T06:28:34;2.87;;;1.50;;
10303;SDS011;5197;48.152;8.590;2024-01-06T06:31:01;2.70;;;0.90;;
10303;SDS011;5197;48.152;8.590;2024-01-06T06:33:29;3.67;;;1.17;;
10303;SDS011;5197;48.152;8.590;2024-01-06T06:35:57;3.17;;;1.50;;
10303;SDS011;5197;48.152;8.590;2024-01-06T06:38:28;2.47;;;1.57;;
10303;SDS011;5197;48.152;8.590;2024-01-06T06:40:56;2.13;;;1.50;;
10303;SDS011;5197;48.152;8.590;2024-01-06T06:43:23;3.80;;;1.30;;
10303;SDS011;5197;48.152;8.590;2024-01-06T06:45:50;5.97;;;1.63;;
10303;SDS011;5197;48.152;8.590;2024-01-06T06:48:17;3.60;;;1.60;;
10303;SDS011;5197;48.152;8.590;2024-01-06T06:50:45;2.50;;;1.23;;
10303;SDS011;5197;48.152;8.590;2024-01-06T06:53:15;2.57;;;1.47;;
10303;SDS011;5197;48.152;8.590;2024-01-06T06:55:42;4.23;;;1.50;;
10303;SDS011;5197;48.152;8.590;2024-01-06T06:58:09;5.27;;;1.50;;
10303;SDS011;5197;48.152;8.590;2024-01-06T07:00:36;2.37;;;1.20;;
10303;SDS011;5197;48.152;8.590;2024-01-06T07:03:04;4.27;;;1.40;;
10303;SDS011;5197;48.152;8.590;2024-01-06T07:05:31;4.10;;;1.33;;
10303;SDS011;5197;48.152;8.590;2024-01-06T07:08:02;2.73;;;1.10;;
10303;SDS011;5197;48.152;8.590;2024-01-06T07:10:29;6.03;;;1.40;;
10303;SDS011;5197;48.152;8.590;2024-01-06T07:12:56;3.43;;;1.20;;
10303;SDS011;5197;48.152;8.590;2024-01-06T07:15:23;2.47;;;1.43;;
10303;SDS011;5197;48.152;8.590;2024-01-06T07:17:50;1.97;;;1.37;;
10303;SDS011;5197;48.152;8.590;2024-01-06T07:20:17;1.40;;;1.30;;
10303;SDS011;5197;48.152;8.590;2024-01-06T07:22:44;1.40;;;1.20;;
10303;SDS011;5197;48.152;8.590;2024-01-06T07:25:11;2.87;;;1.47;;
10303;SDS011;5197;48.152;8.590;2024-01-06T07:27:38;2.23;;;1.43;;
10303;SDS011;5197;48.152;8.590;2024-01-06T07:30:06;2.17;;;1.40;;
10303;SDS011;5197;48.152;8.590;2024-01-06T07:32:36;3.73;;;1.30;;
10303;SDS011;5197;48.152;8.590;2024-01-06T07:35:03;4.40;;;1.37;;
10303;SDS011;5197;48.152;8.590;2024-01-06T07:37:33;4.83;;;1.40;;
10303;SDS011;5197;48.152;8.590;2024-01-06T07:40:01;2.73;;;1.50;;
10303;SDS011;5197;48.152;8.590;2024-01-06T07:42:29;2.17;;;1.30;;
10303;SDS011;5197;48.152;8.590;2024-01-06T07:44:56;5.83;;;1.47;;
10303;SDS011;5197;48.152;8.590;2024-01-06T07:47:23;2.93;;;1.20;;
10303;SDS011;5197;48.152;8.590;2024-01-06T07:49:51;2.93;;;1.50;;
10303;SDS011;5197;48.152;8.590;2024-01-06T07:52:20;4.50;;;1.30;;
10303;SDS011;5197;48.152;8.590;2024-01-06T07:54:47;2.20;;;1.23;;
10303;SDS011;5197;48.152;8.590;2024-01-06T07:57:15;5.10;;;1.33;;
10303;SDS011;5197;48.152;8.590;2024-01-06T07:59:42;3.90;;;1.67;;
10303;SDS011;5197;48.152;8.590;2024-01-06T08:02:09;3.20;;;1.77;;
10303;SDS011;5197;48.152;8.590;2024-01-06T08:04:36;2.43;;;1.30;;
10303;SDS011;5197;48.152;8.590;2024-01-06T08:07:03;4.60;;;1.50;;
10303;SDS011;5197;48.152;8.590;2024-01-06T08:09:31;1.97;;;1.30;;
10303;SDS011;5197;48.152;8.590;2024-01-06T08:11:58;3.47;;;1.60;;
10303;SDS011;5197;48.152;8.590;2024-01-06T08:14:25;3.57;;;1.57;;
10303;SDS011;5197;48.152;8.590;2024-01-06T08:16:52;4.10;;;1.53;;
10303;SDS011;5197;48.152;8.590;2024-01-06T08:19:19;5.73;;;1.50;;
10303;SDS011;5197;48.152;8.590;2024-01-06T08:21:46;3.70;;;1.70;;
10303;SDS011;5197;48.152;8.590;2024-01-06T08:24:13;5.77;;;1.87;;
10303;SDS011;5197;48.152;8.590;2024-01-06T08:26:40;5.20;;;1.80;;
10303;SDS011;5197;48.152;8.590;2024-01-06T08:29:08;2.17;;;1.77;;
10303;SDS011;5197;48.152;8.590;2024-01-06T08:31:35;5.63;;;1.93;;
10303;SDS011;5197;48.152;8.590;2024-01-06T08:34:02;6.67;;;2.00;;
10303;SDS011;5197;48.152;8.590;2024-01-06T08:36:32;1.93;;;1.30;;
10303;SDS011;5197;48.152;8.590;2024-01-06T08:39:00;3.27;;;1.40;;
10303;SDS011;5197;48.152;8.590;2024-01-06T08:41:27;7.23;;;1.97;;
10303;SDS011;5197;48.152;8.590;2024-01-06T08:43:54;6.40;;;1.60;;
10303;SDS011;5197;48.152;8.590;2024-01-06T08:46:21;5.37;;;1.90;;
10303;SDS011;5197;48.152;8.590;2024-01-06T08:48:48;3.17;;;2.00;;
10303;SDS011;5197;48.152;8.590;2024-01-06T08:51:15;4.67;;;2.10;;
10303;SDS011;5197;48.152;8.590;2024-01-06T08:53:43;5.83;;;2.20;;
10303;SDS011;5197;48.152;8.590;2024-01-06T08:56:10;3.77;;;2.03;;
10303;SDS011;5197;48.152;8.590;2024-01-06T08:58:37;2.37;;;1.60;;
10303;SDS011;5197;48.152;8.590;2024-01-06T09:01:04;5.80;;;1.80;;
10303;SDS011;5197;48.152;8.590;2024-01-06T09:03:32;4.33;;;2.00;;
10303;SDS011;5197;48.152;8.590;2024-01-06T09:06:00;3.60;;;1.90;;
10303;SDS011;5197;48.152;8.590;2024-01-06T09:08:27;4.40;;;2.20;;
10303;SDS011;5197;48.152;8.590;2024-01-06T09:10:54;5.03;;;2.30;;
10303;SDS011;5197;48.152;8.590;2024-01-06T09:13:24;3.50;;;1.90;;
10303;SDS011;5197;48.152;8.590;2024-01-06T09:15:51;3.10;;;1.70;;
10303;SDS011;5197;48.152;8.590;2024-01-06T09:18:19;2.23;;;2.10;;
10303;SDS011;5197;48.152;8.590;2024-01-06T09:20:46;2.43;;;1.80;;
10303;SDS011;5197;48.152;8.590;2024-01-06T09:23:16;1.93;;;1.73;;
10303;SDS011;5197;48.152;8.590;2024-01-06T09:25:43;6.07;;;3.20;;
10303;SDS011;5197;48.152;8.590;2024-01-06T09:28:11;4.03;;;3.10;;
10303;SDS011;5197;48.152;8.590;2024-01-06T09:30:38;4.13;;;2.40;;
10303;SDS011;5197;48.152;8.590;2024-01-06T09:33:05;2.33;;;1.77;;
10303;SDS011;5197;48.152;8.590;2024-01-06T09:35:37;2.17;;;2.00;;
10303;SDS011;5197;48.152;8.590;2024-01-06T09:38:04;6.67;;;2.50;;
10303;SDS011;5197;48.152;8.590;2024-01-06T09:40:31;2.50;;;1.90;;
10303;SDS011;5197;48.152;8.590;2024-01-06T09:43:00;2.87;;;1.77;;
10303;SDS011;5197;48.152;8.590;2024-01-06T09:45:28;4.27;;;2.17;;
10303;SDS011;5197;48.152;8.590;2024-01-06T09:47:56;2.40;;;1.90;;
10303;SDS011;5197;48.152;8.590;2024-01-06T09:50:25;2.47;;;1.40;;
10303;SDS011;5197;48.152;8.590;2024-01-06T09:52:53;2.87;;;1.40;;
10303;SDS011;5197;48.152;8.590;2024-01-06T09:55:30;1.87;;;1.40;;
10303;SDS011;5197;48.152;8.590;2024-01-06T09:57:57;1.50;;;1.40;;
10303;SDS011;5197;48.152;8.590;2024-01-06T10:00:25;1.90;;;1.50;;
10303;SDS011;5197;48.152;8.590;2024-01-06T10:02:52;1.80;;;1.50;;
10303;SDS011;5197;48.152;8.590;2024-01-06T10:05:19;4.30;;;1.83;;
10303;SDS011;5197;48.152;8.590;2024-01-06T10:07:47;2.43;;;1.70;;
10303;SDS011;5197;48.152;8.590;2024-01-06T10:10:15;2.63;;;1.43;;
10303;SDS011;5197;48.152;8.590;2024-01-06T10:12:42;3.50;;;1.73;;
10303;SDS011;5197;48.152;8.590;2024-01-06T10:15:10;2.50;;;1.20;;
10303;SDS011;5197;48.152;8.590;2024-01-06T10:17:39;2.10;;;1.37;;
10303;SDS011;5197;48.152;8.590;2024-01-06T10:20:11;1.17;;;1.07;;
10303;SDS011;5197;48.152;8.590;2024-01-06T10:22:42;2.37;;;1.90;;
10303;SDS011;5197;48.152;8.590;2024-01-06T10:25:09;2.53;;;1.40;;
10303;SDS011;5197;48.152;8.590;2024-01-06T10:27:38;3.07;;;1.70;;
10303;SDS011;5197;48.152;8.590;2024-01-06T10:30:07;4.33;;;1.77;;
10303;SDS011;5197;48.152;8.590;2024-01-06T10:32:35;1.70;;;1.33;;
10303;SDS011;5197;48.152;8.590;2024-01-06T10:35:04;1.63;;;1.37;;
10303;SDS011;5197;48.152;8.590;2024-01-06T10:37:33;1.67;;;1.00;;
10303;SDS011;5197;48.152;8.590;2024-01-06T10:42:42;1.67;;;1.57;;
10303;SDS011;5197;48.152;8.590;2024-01-06T10:45:11;4.27;;;1.37;;
10303;SDS011;5197;48.152;8.590;2024-01-06T10:47:43;0.50;;;0.50;;
10303;SDS011;5197;48.152;8.590;2024-01-06T10:50:11;2.67;;;1.20;;
10303;SDS011;5197;48.152;8.590;2024-01-06T10:52:41;1.80;;;0.97;;
10303;SDS011;5197;48.152;8.590;2024-01-06T10:55:09;0.40;;;0.40;;
10303;SDS011;5197;48.152;8.590;2024-01-06T10:57:38;1.70;;;1.60;;
10303;SDS011;5197;48.152;8.590;2024-01-06T11:00:07;1.60;;;1.30;;
10303;SDS011;5197;48.152;8.590;2024-01-06T11:02:37;2.07;;;1.43;;
10303;SDS011;5197;48.152;8.590;2024-01-06T11:05:05;1.80;;;1.17;;
10303;SDS011;5197;48.152;8.590;2024-01-06T11:07:34;1.30;;;1.20;;
10303;SDS011;5197;48.152;8.590;2024-01-06T11:10:14;1.57;;;1.40;;
10303;SDS011;5197;48.152;8.590;2024-01-06T11:12:43;2.37;;;1.43;;
10303;SDS011;5197;48.152;8.590;2024-01-06T11:15:10;2.10;;;1.57;;
10303;SDS011;5197;48.152;8.590;2024-01-06T11:18:34;1.93;;;1.63;;
10303;SDS011;5197;48.152;8.590;2024-01-06T11:26:43;4.23;;;1.60;;
10303;SDS011;5197;48.152;8.590;2024-01-06T11:29:11;3.00;;;1.63;;
10303;SDS011;5197;48.152;8.590;2024-01-06T11:31:39;1.07;;;1.07;;
10303;SDS011;5197;48.152;8.590;2024-01-06T11:34:16;1.50;;;1.40;;
10303;SDS011;5197;48.152;8.590;2024-01-06T11:36:45;2.27;;;1.47;;
10303;SDS011;5197;48.152;8.590;2024-01-06T11:42:09;1.10;;;1.03;;
10303;SDS011;5197;48.152;8.590;2024-01-06T11:44:44;1.40;;;1.30;;
10303;SDS011;5197;48.152;8.590;2024-01-06T11:47:15;2.50;;;1.00;;
10303;SDS011;5197;48.152;8.590;2024-01-06T11:49:50;1.30;;;0.87;;
10303;SDS011;5197;48.152;8.590;2024-01-06T11:52:21;1.80;;;1.20;;
10303;SDS011;5197;48.152;8.590;2024-01-06T11:54:49;1.17;;;0.83;;
10303;SDS011;5197;48.152;8.590;2024-01-06T11:57:18;0.77;;;0.70;;
10303;SDS011;5197;48.152;8.590;2024-01-06T11:59:46;0.60;;;0.60;;
10303;SDS011;5197;48.152;8.590;2024-01-06T12:02:14;1.80;;;1.20;;
10303;SDS011;5197;48.152;8.590;2024-01-06T12:04:41;0.83;;;0.83;;
10303;SDS011;5197;48.152;8.590;2024-01-06T12:07:09;1.03;;;0.90;;
10303;SDS011;5197;48.152;8.590;2024-01-06T12:09:39;0.90;;;0.90;;
10303;SDS011;5197;48.152;8.590;2024-01-06T12:12:07;1.87;;;1.20;;
10303;SDS011;5197;48.152;8.590;2024-01-06T12:14:36;2.07;;;1.23;;
10303;SDS011;5197;48.152;8.590;2024-01-06T12:17:04;0.70;;;0.70;;
10303;SDS011;5197;48.152;8.590;2024-01-06T12:19:31;0.83;;;0.80;;
10303;SDS011;5197;48.152;8.590;2024-01-06T12:22:05;0.50;;;0.50;;
10303;SDS011;5197;48.152;8.590;2024-01-06T12:24:33;1.40;;;1.00;;
10303;SDS011;5197;48.152;8.590;2024-01-06T12:27:00;0.77;;;0.77;;
10303;SDS011;5197;48.152;8.590;2024-01-06T12:29:27;0.83;;;0.83;;
10303;SDS011;5197;48.152;8.590;2024-01-06T12:31:55;0.70;;;0.70;;
10303;SDS011;5197;48.152;8.590;2024-01-06T12:34:22;0.53;;;0.53;;
10303;SDS011;5197;48.152;8.590;2024-01-06T12:36:52;0.60;;;0.60;;
10303;SDS011;5197;48.152;8.590;2024-01-06T12:39:21;1.30;;;1.00;;
10303;SDS011;5197;48.152;8.590;2024-01-06T12:41:50;0.20;;;0.20;;
10303;SDS011;5197;48.152;8.590;2024-01-06T12:44:18;1.10;;;1.10;;
10303;SDS011;5197;48.152;8.590;2024-01-06T12:46:46;0.40;;;0.40;;
10303;SDS011;5197;48.152;8.590;2024-01-06T12:49:14;1.67;;;0.60;;
10303;SDS011;5197;48.152;8.590;2024-01-06T12:51:41;0.53;;;0.53;;
10303;SDS011;5197;48.152;8.590;2024-01-06T12:54:08;2.40;;;1.10;;
10303;SDS011;5197;48.152;8.590;2024-01-06T12:56:36;1.23;;;1.17;;
10303;SDS011;5197;48.152;8.590;2024-01-06T12:59:03;0.80;;;0.80;;
10303;SDS011;5197;48.152;8.590;2024-01-06T13:01:30;0.87;;;0.87;;
10303;SDS011;5197;48.152;8.590;2024-01-06T13:03:58;0.97;;;0.50;;
10303;SDS011;5197;48.152;8.590;2024-01-06T13:06:27;1.10;;;1.00;;
10303;SDS011;5197;48.152;8.590;2024-01-06T13:08:54;0.70;;;0.70;;
10303;SDS011;5197;48.152;8.590;2024-01-06T13:11:21;0.73;;;0.73;;
10303;SDS011;5197;48.152;8.590;2024-01-06T13:13:52;0.67;;;0.67;;
10303;SDS011;5197;48.152;8.590;2024-01-06T13:16:19;1.10;;;0.90;;
10303;SDS011;5197;48.152;8.590;2024-01-06T13:18:47;0.83;;;0.73;;
10303;SDS011;5197;48.152;8.590;2024-01-06T13:21:21;1.20;;;1.20;;
10303;SDS011;5197;48.152;8.590;2024-01-06T13:23:48;2.87;;;1.27;;
10303;SDS011;5197;48.152;8.590;2024-01-06T13:26:16;1.30;;;1.20;;
10303;SDS011;5197;48.152;8.590;2024-01-06T13:28:44;3.57;;;1.00;;
10303;SDS011;5197;48.152;8.590;2024-01-06T13:31:11;1.17;;;1.10;;
10303;SDS011;5197;48.152;8.590;2024-01-06T13:33:38;1.23;;;0.80;;
10303;SDS011;5197;48.152;8.590;2024-01-06T13:36:05;1.03;;;1.03;;
10303;SDS011;5197;48.152;8.590;2024-01-06T13:38:33;0.90;;;0.90;;
10303;SDS011;5197;48.152;8.590;2024-01-06T13:41:00;0.47;;;0.47;;
10303;SDS011;5197;48.152;8.590;2024-01-06T13:43:27;2.83;;;1.13;;
10303;SDS011;5197;48.152;8.590;2024-01-06T13:45:54;0.80;;;0.80;;
10303;SDS011;5197;48.152;8.590;2024-01-06T13:48:22;1.00;;;1.00;;
10303;SDS011;5197;48.152;8.590;2024-01-06T13:50:49;1.00;;;1.00;;
10303;SDS011;5197;48.152;8.590;2024-01-06T13:53:17;4.57;;;1.43;;
10303;SDS011;5197;48.152;8.590;2024-01-06T13:55:44;1.37;;;1.30;;
10303;SDS011;5197;48.152;8.590;2024-01-06T13:58:11;1.60;;;1.50;;
10303;SDS011;5197;48.152;8.590;2024-01-06T14:00:38;1.50;;;1.40;;
10303;SDS011;5197;48.152;8.590;2024-01-06T14:03:05;2.13;;;1.33;;
10303;SDS011;5197;48.152;8.590;2024-01-06T14:05:33;1.13;;;1.13;;
10303;SDS011;5197;48.152;8.590;2024-01-06T14:08:01;1.47;;;1.10;;
10303;SDS011;5197;48.152;8.590;2024-01-06T14:10:29;1.10;;;1.10;;
10303;SDS011;5197;48.152;8.590;2024-01-06T14:12:58;1.50;;;1.00;;
10303;SDS011;5197;48.152;8.590;2024-01-06T14:15:25;0.80;;;0.80;;
10303;SDS011;5197;48.152;8.590;2024-01-06T14:17:53;0.67;;;0.67;;
10303;SDS011;5197;48.152;8.590;2024-01-06T14:20:20;1.53;;;1.43;;
10303;SDS011;5197;48.152;8.590;2024-01-06T14:22:47;1.50;;;0.90;;
10303;SDS011;5197;48.152;8.590;2024-01-06T14:25:16;1.40;;;1.30;;
10303;SDS011;5197;48.152;8.590;2024-01-06T14:27:46;1.17;;;1.10;;
10303;SDS011;5197;48.152;8.590;2024-01-06T14:30:14;1.00;;;1.00;;
10303;SDS011;5197;48.152;8.590;2024-01-06T14:32:42;1.03;;;1.00;;
10303;SDS011;5197;48.152;8.590;2024-01-06T14:35:10;1.00;;;0.80;;
10303;SDS011;5197;48.152;8.590;2024-01-06T14:37:39;0.93;;;0.93;;
10303;SDS011;5197;48.152;8.590;2024-01-06T14:40:06;0.33;;;0.33;;
10303;SDS011;5197;48.152;8.590;2024-01-06T14:42:34;1.10;;;1.00;;
10303;SDS011;5197;48.152;8.590;2024-01-06T14:45:03;0.50;;;0.50;;
10303;SDS011;5197;48.152;8.590;2024-01-06T14:47:30;2.77;;;1.77;;
10303;SDS011;5197;48.152;8.590;2024-01-06T14:49:59;1.73;;;1.30;;
10303;SDS011;5197;48.152;8.590;2024-01-06T14:52:26;0.60;;;0.60;;
10303;SDS011;5197;48.152;8.590;2024-01-06T14:54:54;0.90;;;0.90;;
10303;SDS011;5197;48.152;8.590;2024-01-06T14:57:21;1.20;;;1.20;;
10303;SDS011;5197;48.152;8.590;2024-01-06T14:59:48;1.37;;;1.27;;
10303;SDS011;5197;48.152;8.590;2024-01-06T15:02:16;4.00;;;1.60;;
10303;SDS011;5197;48.152;8.590;2024-01-06T15:04:43;2.00;;;1.60;;
10303;SDS011;5197;48.152;8.590;2024-01-06T15:07:10;1.97;;;1.43;;
10303;SDS011;5197;48.152;8.590;2024-01-06T15:09:41;1.50;;;1.40;;
10303;SDS011;5197;48.152;8.590;2024-01-06T15:12:08;2.73;;;1.80;;
10303;SDS011;5197;48.152;8.590;2024-01-06T15:14:35;1.40;;;1.20;;
10303;SDS011;5197;48.152;8.590;2024-01-06T15:17:02;3.80;;;1.50;;